createdAt,value
2022-09-16T00:00:51.210Z,74.03
2022-09-16T00:03:18.463Z,74.34
2022-09-16T00:05:47.784Z,74.65
2022-09-16T00:08:14.546Z,74.62
2022-09-16T00:10:46.201Z,74.80
2022-09-16T00:13:13.688Z,74.91
2022-09-16T00:15:44.507Z,75.05
2022-09-16T00:18:12.099Z,75.20
2022-09-16T00:20:47.235Z,74.86
2022-09-16T00:23:13.713Z,74.87
2022-09-16T00:25:50.813Z,74.91
2022-09-16T00:28:17.258Z,74.84
2022-09-16T00:30:43.665Z,74.60
2022-09-16T00:33:10.744Z,74.62
2022-09-16T00:35:37.156Z,74.27
2022-09-16T00:38:03.579Z,74.19
2022-09-16T00:40:30.091Z,74.46
2022-09-16T00:42:56.540Z,74.78
2022-09-16T00:45:28.275Z,74.79
2022-09-16T00:48:00.136Z,74.35
2022-09-16T00:50:38.322Z,74.52
2022-09-16T00:53:06.057Z,74.23
2022-09-16T00:55:34.965Z,73.55
2022-09-16T00:58:14.286Z,74.40
2022-09-16T01:00:41.267Z,74.55
2022-09-16T01:03:07.791Z,74.23
2022-09-16T01:05:37.058Z,74.04
2022-09-16T01:08:03.483Z,74.06
2022-09-16T01:10:30.055Z,73.78
2022-09-16T01:13:00.569Z,74.23
2022-09-16T01:15:36.005Z,74.21
2022-09-16T01:18:08.586Z,73.03
2022-09-16T01:21:03.731Z,73.49
2022-09-16T01:23:50.932Z,74.10
2022-09-16T01:26:56.002Z,74.05
2022-09-16T01:29:47.068Z,73.73
2022-09-16T01:32:34.969Z,72.67
2022-09-16T01:35:20.097Z,73.18
2022-09-16T01:38:22.646Z,72.45
2022-09-16T01:41:17.394Z,72.58
2022-09-16T01:43:54.827Z,72.82
2022-09-16T01:46:48.786Z,72.38
2022-09-16T01:49:37.032Z,72.68
2022-09-16T01:52:24.461Z,72.44
2022-09-16T01:54:56.333Z,72.41
2022-09-16T01:57:44.989Z,72.58
2022-09-16T02:00:14.338Z,72.29
2022-09-16T02:02:46.530Z,72.34
2022-09-16T02:05:17.217Z,71.84
2022-09-16T02:07:47.909Z,72.14
2022-09-16T02:10:22.089Z,71.82
2022-09-16T02:12:49.820Z,72.15
2022-09-16T02:15:22.037Z,72.28
2022-09-16T02:17:59.016Z,72.47
2022-09-16T02:20:27.691Z,72.76
2022-09-16T02:22:59.855Z,73.11
2022-09-16T02:25:27.622Z,73.63
2022-09-16T02:27:54.234Z,73.96
2022-09-16T02:30:22.454Z,73.96
2022-09-16T02:32:53.271Z,74.30
2022-09-16T02:35:20.904Z,74.53
2022-09-16T02:37:50.766Z,74.81
2022-09-16T02:40:20.923Z,74.35
2022-09-16T02:42:47.467Z,73.86
2022-09-16T02:45:13.921Z,73.10
2022-09-16T02:47:48.623Z,73.30
2022-09-16T02:50:25.644Z,73.95
2022-09-16T02:52:56.683Z,73.76
2022-09-16T02:55:38.767Z,74.00
2022-09-16T02:58:06.227Z,73.80
2022-09-16T03:00:39.462Z,73.58
2022-09-16T03:03:05.967Z,73.30
2022-09-16T03:05:32.829Z,73.15
2022-09-16T03:08:02.953Z,72.89
2022-09-16T03:10:36.877Z,72.72
2022-09-16T03:13:12.758Z,72.92
2022-09-16T03:16:13.350Z,72.80
2022-09-16T03:18:55.339Z,72.71
2022-09-16T03:21:30.235Z,72.48
2022-09-16T03:24:11.300Z,72.38
2022-09-16T03:26:53.791Z,72.37
2022-09-16T03:29:45.975Z,72.39
2022-09-16T03:32:20.903Z,71.97
2022-09-16T03:35:02.695Z,72.32
2022-09-16T03:37:34.170Z,72.29
2022-09-16T03:40:13.472Z,72.15
2022-09-16T03:42:40.154Z,71.91
2022-09-16T03:45:07.666Z,72.05
2022-09-16T03:47:34.176Z,71.91
2022-09-16T03:50:00.781Z,71.62
2022-09-16T03:52:27.381Z,72.03
2022-09-16T03:54:53.798Z,72.28
2022-09-16T03:57:20.208Z,72.90
2022-09-16T03:59:46.623Z,72.79
2022-09-16T04:02:13.201Z,73.51
2022-09-16T04:04:39.645Z,73.18
2022-09-16T04:07:06.070Z,73.51
2022-09-16T04:09:32.768Z,73.75
2022-09-16T04:11:59.542Z,73.85
2022-09-16T04:14:25.984Z,73.78
2022-09-16T04:16:52.394Z,74.27
2022-09-16T04:19:18.829Z,74.82
2022-09-16T04:21:45.254Z,74.61
2022-09-16T04:24:13.413Z,74.92
2022-09-16T04:26:40.901Z,75.22
2022-09-16T04:29:07.358Z,75.20
2022-09-16T04:31:34.023Z,74.82
2022-09-16T04:34:04.110Z,74.45
2022-09-16T04:36:30.901Z,74.61
2022-09-16T04:38:57.323Z,74.47
2022-09-16T04:41:25.473Z,74.42
2022-09-16T04:43:53.696Z,74.56
2022-09-16T04:46:20.625Z,75.00
2022-09-16T04:48:51.207Z,75.00
2022-09-16T04:51:19.554Z,75.13
2022-09-16T04:53:46.825Z,75.52
2022-09-16T04:56:15.912Z,75.14
2022-09-16T04:58:44.019Z,75.03
2022-09-16T05:01:15.361Z,75.25
2022-09-16T05:03:43.250Z,74.95
2022-09-16T05:06:19.874Z,75.09
2022-09-16T05:08:47.674Z,75.40
2022-09-16T05:11:20.832Z,75.41
2022-09-16T05:13:47.629Z,75.48
2022-09-16T05:16:16.646Z,75.78
2022-09-16T05:18:44.450Z,75.73
2022-09-16T05:21:13.043Z,76.03
2022-09-16T05:23:44.524Z,76.03
2022-09-16T05:26:16.534Z,75.58
2022-09-16T05:28:43.211Z,75.19
2022-09-16T05:31:15.806Z,75.09
2022-09-16T05:33:44.820Z,75.21
2022-09-16T05:36:16.362Z,75.28
2022-09-16T05:38:59.126Z,75.28
2022-09-16T05:41:30.558Z,75.35
2022-09-16T05:44:00.638Z,75.64
2022-09-16T05:46:27.882Z,75.43
2022-09-16T05:48:54.844Z,76.07
2022-09-16T05:51:22.519Z,75.92
2022-09-16T05:53:50.125Z,75.75
2022-09-16T05:56:21.827Z,76.03
2022-09-16T05:58:48.566Z,75.34
2022-09-16T06:01:17.211Z,75.34
2022-09-16T06:03:48.262Z,74.42
2022-09-16T06:06:26.604Z,74.35
2022-09-16T06:08:58.240Z,74.54
2022-09-16T06:11:26.306Z,74.36
2022-09-16T06:13:58.127Z,74.18
2022-09-16T06:16:27.784Z,74.02
2022-09-16T06:18:55.052Z,73.95
2022-09-16T06:21:21.924Z,73.89
2022-09-16T06:23:48.372Z,74.08
2022-09-16T06:26:19.803Z,74.23
2022-09-16T06:28:47.117Z,74.32
2022-09-16T06:31:16.943Z,74.12
2022-09-16T06:33:44.362Z,74.20
2022-09-16T06:36:13.615Z,74.07
2022-09-16T06:38:40.588Z,74.09
2022-09-16T06:41:08.869Z,73.91
2022-09-16T06:43:35.797Z,73.71
2022-09-16T06:46:05.683Z,74.06
2022-09-16T06:48:33.803Z,73.87
2022-09-16T06:51:04.272Z,73.71
2022-09-16T06:53:31.506Z,73.66
2022-09-16T06:56:06.616Z,73.42
2022-09-16T06:58:34.393Z,73.50
2022-09-16T07:01:12.620Z,73.17
2022-09-16T07:03:45.204Z,73.34
2022-09-16T07:06:13.815Z,73.62
2022-09-16T07:08:40.629Z,73.91
2022-09-16T07:11:16.396Z,73.55
2022-09-16T07:13:43.428Z,74.10
2022-09-16T07:16:13.944Z,73.94
2022-09-16T07:18:41.543Z,74.03
2022-09-16T07:21:11.165Z,73.85
2022-09-16T07:23:38.425Z,73.46
2022-09-16T07:26:07.762Z,72.70
2022-09-16T07:28:34.166Z,72.59
2022-09-16T07:31:02.401Z,72.19
2022-09-16T07:33:33.411Z,71.87
2022-09-16T07:36:00.586Z,71.25
2022-09-16T07:38:27.824Z,70.04
2022-09-16T07:40:54.319Z,70.43
2022-09-16T07:43:20.908Z,69.75
2022-09-16T07:45:47.631Z,68.79
2022-09-16T07:48:14.077Z,69.41
2022-09-16T07:50:40.466Z,70.10
2022-09-16T07:53:06.874Z,70.29
2022-09-16T07:55:34.984Z,70.55
2022-09-16T07:58:01.392Z,71.00
2022-09-16T08:00:27.811Z,71.39
2022-09-16T08:02:57.113Z,72.00
2022-09-16T08:05:23.600Z,71.94
2022-09-16T08:07:49.998Z,71.79
2022-09-16T08:10:16.462Z,71.12
2022-09-16T08:12:46.884Z,70.42
2022-09-16T08:15:13.363Z,70.31
2022-09-16T08:17:39.789Z,70.01
2022-09-16T08:20:07.064Z,69.80
2022-09-16T08:22:34.212Z,70.19
2022-09-16T08:25:00.612Z,70.42
2022-09-16T08:27:27.764Z,69.41
2022-09-16T08:29:54.183Z,68.92
2022-09-16T08:32:20.688Z,67.88
2022-09-16T08:34:47.487Z,66.90
2022-09-16T08:37:13.891Z,67.19
2022-09-16T08:39:40.759Z,66.77
2022-09-16T08:42:29.668Z,67.03
2022-09-16T08:45:19.446Z,66.23
2022-09-16T08:47:51.916Z,65.37
2022-09-16T08:50:24.416Z,65.52
2022-09-16T08:52:51.309Z,64.67
2022-09-16T08:55:24.021Z,64.39
2022-09-16T08:58:17.626Z,64.37
2022-09-16T09:00:46.724Z,63.89
2022-09-16T09:03:46.101Z,64.55
2022-09-16T09:06:20.899Z,65.03
2022-09-16T09:09:00.904Z,65.00
2022-09-16T09:11:27.225Z,65.47
2022-09-16T09:14:10.559Z,63.70
2022-09-16T09:16:57.201Z,64.10
2022-09-16T09:19:53.426Z,62.52
2022-09-16T09:22:49.852Z,60.45
2022-09-16T09:25:22.370Z,60.71
2022-09-16T09:28:21.157Z,59.65
2022-09-16T09:31:10.073Z,60.61
2022-09-16T09:33:54.191Z,60.66
2022-09-16T09:36:48.430Z,60.48
2022-09-16T09:39:51.674Z,60.43
2022-09-16T09:42:39.887Z,60.35
2022-09-16T09:45:18.100Z,59.97
2022-09-16T09:48:10.963Z,60.54
2022-09-16T09:50:48.448Z,60.01
2022-09-16T09:53:28.247Z,60.07
2022-09-16T09:56:15.787Z,59.96
2022-09-16T09:58:54.438Z,60.38
2022-09-16T10:01:21.105Z,60.75
2022-09-16T10:03:51.617Z,61.31
2022-09-16T10:06:23.345Z,61.38
2022-09-16T10:08:51.641Z,61.70
2022-09-16T10:11:22.191Z,61.66
2022-09-16T10:13:51.418Z,61.81
2022-09-16T10:16:20.555Z,61.70
2022-09-16T10:19:01.245Z,61.31
2022-09-16T10:21:39.230Z,60.28
2022-09-16T10:24:05.723Z,60.53
2022-09-16T10:26:40.203Z,60.85
2022-09-16T10:29:17.344Z,59.88
2022-09-16T10:31:43.954Z,59.62
2022-09-16T10:34:26.894Z,59.68
2022-09-16T10:37:19.784Z,58.93
2022-09-16T10:39:57.145Z,58.95
2022-09-16T10:42:26.765Z,58.22
2022-09-16T10:44:55.927Z,58.27
2022-09-16T10:47:25.003Z,58.61
2022-09-16T10:49:54.344Z,58.05
2022-09-16T10:52:23.167Z,57.98
2022-09-16T10:54:49.804Z,57.76
2022-09-16T10:57:29.955Z,57.77
2022-09-16T11:00:16.938Z,58.09
2022-09-16T11:02:55.346Z,57.92
2022-09-16T11:05:31.418Z,58.27
2022-09-16T11:08:23.375Z,58.54
2022-09-16T11:11:03.323Z,58.31
2022-09-16T11:13:37.318Z,58.20
2022-09-16T11:16:14.153Z,57.64
2022-09-16T11:18:50.655Z,57.86
2022-09-16T11:21:50.423Z,57.98
2022-09-16T11:24:35.716Z,57.92
2022-09-16T11:27:10.798Z,57.62
2022-09-16T11:29:43.091Z,57.41
2022-09-16T11:32:30.828Z,57.89
2022-09-16T11:35:03.340Z,57.34
2022-09-16T11:37:37.667Z,57.30
2022-09-16T11:40:30.926Z,56.45
2022-09-16T11:43:09.314Z,56.09
2022-09-16T11:45:42.535Z,55.95
2022-09-16T11:48:31.946Z,56.81
2022-09-16T11:51:12.128Z,57.52
2022-09-16T11:54:13.111Z,56.68
2022-09-16T11:56:55.417Z,56.73
2022-09-16T11:59:44.608Z,56.96
2022-09-16T12:02:20.099Z,56.87
2022-09-16T12:04:54.914Z,56.26
2022-09-16T12:07:33.628Z,56.74
2022-09-16T12:10:06.243Z,55.91
2022-09-16T12:12:37.332Z,55.67
2022-09-16T12:15:26.160Z,56.06
2022-09-16T12:18:07.389Z,57.00
2022-09-16T12:20:37.489Z,56.98
2022-09-16T12:23:14.577Z,57.61
2022-09-16T12:26:10.139Z,56.69
2022-09-16T12:28:43.720Z,56.60
2022-09-16T12:31:40.450Z,56.25
2022-09-16T12:34:20.873Z,56.77
2022-09-16T12:36:51.806Z,56.34
2022-09-16T12:39:18.218Z,56.13
2022-09-16T12:42:11.266Z,56.27
2022-09-16T12:45:12.870Z,55.74
2022-09-16T12:48:02.787Z,56.13
2022-09-16T12:51:00.499Z,55.97
2022-09-16T12:54:21.024Z,52.42
2022-09-16T12:57:01.435Z,53.10
2022-09-16T12:59:40.717Z,52.94
2022-09-16T13:02:17.656Z,53.89
2022-09-16T13:04:48.044Z,53.60
2022-09-16T13:07:30.163Z,53.48
2022-09-16T13:10:35.004Z,54.02
2022-09-16T13:13:07.949Z,53.49
2022-09-16T13:15:36.367Z,52.95
2022-09-16T13:18:22.632Z,53.47
2022-09-16T13:20:59.640Z,54.20
2022-09-16T13:23:33.864Z,56.51
2022-09-16T13:26:09.358Z,58.23
2022-09-16T13:28:41.563Z,59.67
2022-09-16T13:31:10.984Z,59.88
2022-09-16T13:33:39.053Z,60.18
2022-09-16T13:36:20.378Z,60.22
2022-09-16T13:38:51.833Z,60.28
2022-09-16T13:41:37.444Z,59.94
2022-09-16T13:44:33.175Z,58.84
2022-09-16T13:47:08.728Z,59.82
2022-09-16T13:49:36.647Z,59.97
2022-09-16T13:52:11.662Z,60.35
2022-09-16T13:55:09.417Z,59.39
2022-09-16T13:57:58.380Z,59.13
2022-09-16T14:00:36.164Z,59.73
2022-09-16T14:03:24.341Z,60.21
2022-09-16T14:05:59.552Z,60.22
2022-09-16T14:08:31.952Z,60.75
2022-09-16T14:11:07.347Z,61.59
2022-09-16T14:13:39.926Z,62.35
2022-09-16T14:16:12.861Z,62.62
2022-09-16T14:18:42.177Z,63.35
2022-09-16T14:21:19.242Z,63.52
2022-09-16T14:23:45.739Z,63.04
2022-09-16T14:26:14.026Z,63.10
2022-09-16T14:28:40.768Z,63.67
2022-09-16T14:31:14.823Z,62.99
2022-09-16T14:33:56.870Z,63.13
2022-09-16T14:36:28.991Z,62.53
2022-09-16T14:39:07.549Z,62.29
2022-09-16T14:41:49.057Z,61.95
2022-09-16T14:44:18.258Z,62.06
2022-09-16T14:46:47.570Z,62.23
2022-09-16T14:49:14.346Z,62.49
2022-09-16T14:51:47.224Z,63.24
2022-09-16T14:54:18.884Z,63.32
2022-09-16T14:57:02.026Z,62.79
2022-09-16T14:59:34.764Z,62.84
2022-09-16T15:02:07.788Z,63.03
2022-09-16T15:04:36.952Z,63.57
2022-09-16T15:07:46.225Z,63.87
2022-09-16T15:10:35.865Z,63.95
2022-09-16T15:13:17.006Z,63.98
2022-09-16T15:15:54.256Z,64.23
2022-09-16T15:18:28.580Z,64.65
2022-09-16T15:21:01.909Z,64.79
2022-09-16T15:23:28.862Z,65.10
2022-09-16T15:26:10.030Z,65.80
2022-09-16T15:28:36.472Z,65.08
2022-09-16T15:31:03.737Z,65.09
2022-09-16T15:33:39.401Z,64.78
2022-09-16T15:36:07.495Z,64.60
2022-09-16T15:38:34.199Z,66.10
2022-09-16T15:41:05.500Z,66.85
2022-09-16T15:43:39.721Z,67.48
2022-09-16T15:46:16.011Z,68.30
2022-09-16T15:48:50.202Z,67.89
2022-09-16T15:51:39.374Z,68.37
2022-09-16T15:54:31.643Z,69.07
2022-09-16T15:57:15.351Z,69.26
2022-09-16T15:59:46.432Z,69.94
2022-09-16T16:02:53.227Z,69.85
2022-09-16T16:05:25.878Z,70.38
2022-09-16T16:07:54.653Z,70.35
2022-09-16T16:10:26.672Z,70.92
2022-09-16T16:12:54.507Z,70.72
2022-09-16T16:15:23.612Z,70.24
2022-09-16T16:17:50.340Z,69.97
2022-09-16T16:20:17.440Z,69.77
2022-09-16T16:22:45.056Z,70.02
2022-09-16T16:25:13.482Z,69.20
2022-09-16T16:27:40.215Z,68.71
2022-09-16T16:30:07.617Z,66.53
2022-09-16T16:32:34.969Z,65.49
2022-09-16T16:35:01.667Z,64.97
2022-09-16T16:37:45.448Z,64.78
2022-09-16T16:40:14.707Z,65.26
2022-09-16T16:42:43.222Z,65.49
2022-09-16T16:45:11.827Z,65.35
2022-09-16T16:47:40.030Z,65.92
2022-09-16T16:50:06.795Z,66.40
2022-09-16T16:52:35.123Z,66.53
2022-09-16T16:55:01.556Z,67.33
2022-09-16T16:57:28.217Z,67.64
2022-09-16T16:59:54.692Z,68.11
2022-09-16T17:02:21.117Z,68.28
2022-09-16T17:04:47.624Z,68.49
2022-09-16T17:07:25.546Z,68.60
2022-09-16T17:09:53.356Z,68.66
2022-09-16T17:12:20.060Z,68.87
2022-09-16T17:14:46.475Z,69.43
2022-09-16T17:17:12.873Z,69.55
2022-09-16T17:19:39.340Z,69.74
2022-09-16T17:22:05.764Z,69.32
2022-09-16T17:24:32.396Z,68.81
2022-09-16T17:26:58.939Z,68.65
2022-09-16T17:29:25.421Z,68.75
2022-09-16T17:31:51.853Z,68.98
2022-09-16T17:34:18.272Z,69.20
2022-09-16T17:36:46.111Z,69.38
2022-09-16T17:39:18.697Z,69.87
2022-09-16T17:41:46.421Z,69.92
2022-09-16T17:44:13.762Z,70.38
2022-09-16T17:46:41.698Z,70.09
2022-09-16T17:49:22.078Z,70.21
2022-09-16T17:51:49.140Z,70.08
2022-09-16T17:54:15.817Z,70.44
2022-09-16T17:56:42.965Z,70.39
2022-09-16T17:59:10.761Z,70.27
2022-09-16T18:01:37.202Z,70.58
2022-09-16T18:04:03.943Z,70.71
2022-09-16T18:06:38.986Z,70.76
2022-09-16T18:09:07.155Z,70.86
2022-09-16T18:11:34.383Z,71.19
2022-09-16T18:14:02.482Z,71.65
2022-09-16T18:16:30.249Z,71.83
2022-09-16T18:18:58.908Z,71.85
2022-09-16T18:21:26.327Z,72.29
2022-09-16T18:23:55.136Z,72.22
2022-09-16T18:26:22.104Z,72.34
2022-09-16T18:31:36.259Z,72.92
2022-09-16T18:34:03.349Z,73.15
2022-09-16T18:36:32.583Z,73.15
2022-09-16T18:38:59.347Z,73.36
2022-09-16T18:41:30.868Z,73.47
2022-09-16T18:43:59.694Z,73.61
2022-09-16T18:46:28.880Z,73.57
2022-09-16T18:48:55.987Z,73.35
2022-09-16T18:51:26.612Z,73.37
2022-09-16T18:53:57.766Z,73.63
2022-09-16T18:56:25.125Z,73.55
2022-09-16T18:59:17.249Z,73.77
2022-09-16T19:01:39.468Z,73.97
2022-09-16T19:04:09.386Z,74.10
2022-09-16T19:06:38.335Z,74.46
2022-09-16T19:09:06.582Z,74.72
2022-09-16T19:11:34.357Z,75.03
2022-09-16T19:14:01.372Z,75.24
2022-09-16T19:16:27.881Z,75.37
2022-09-16T19:18:55.610Z,75.58
2022-09-16T19:21:23.891Z,75.28
2022-09-16T19:23:58.647Z,75.24
2022-09-16T19:26:30.924Z,75.14
2022-09-16T19:28:59.433Z,75.49
2022-09-16T19:31:25.897Z,75.44
2022-09-16T19:33:52.656Z,75.65
2022-09-16T19:36:21.978Z,75.81
2022-09-16T19:38:49.301Z,75.75
2022-09-16T19:41:17.480Z,75.91
2022-09-16T19:43:44.058Z,75.93
2022-09-16T19:46:15.412Z,76.07
2022-09-16T19:48:44.105Z,76.15
2022-09-16T19:51:12.363Z,76.17
2022-09-16T19:53:39.605Z,76.49
2022-09-16T19:56:09.411Z,76.51
2022-09-16T19:58:37.025Z,76.50
2022-09-16T20:01:04.765Z,76.60
2022-09-16T20:03:32.270Z,76.38
2022-09-16T20:06:15.950Z,76.58
2022-09-16T20:08:43.808Z,76.50
2022-09-16T20:11:19.232Z,76.99
2022-09-16T20:13:53.573Z,76.79
2022-09-16T20:16:23.376Z,76.82
2022-09-16T20:18:49.844Z,76.82
2022-09-16T20:21:18.788Z,76.66
2022-09-16T20:23:45.670Z,76.68
2022-09-16T20:26:14.828Z,76.62
2022-09-16T20:28:42.730Z,76.65
2022-09-16T20:31:11.639Z,76.27
2022-09-16T20:33:38.776Z,76.28
2022-09-16T20:36:10.476Z,76.25
2022-09-16T20:38:37.876Z,76.05
2022-09-16T20:41:06.084Z,75.78
2022-09-16T20:43:32.736Z,75.67
2022-09-16T20:46:07.149Z,75.69
2022-09-16T20:48:33.974Z,75.55
2022-09-16T20:51:08.921Z,75.67
2022-09-16T20:53:36.363Z,75.69
2022-09-16T20:56:04.543Z,75.28
2022-09-16T20:58:31.033Z,75.18
2022-09-16T21:01:03.866Z,74.92
2022-09-16T21:03:30.344Z,74.42
2022-09-16T21:06:01.077Z,74.81
2022-09-16T21:08:30.820Z,74.52
2022-09-16T21:11:09.225Z,74.84
2022-09-16T21:13:35.647Z,74.72
2022-09-16T21:16:02.217Z,74.79
2022-09-16T21:18:28.780Z,74.74
2022-09-16T21:20:59.798Z,74.45
2022-09-16T21:23:26.815Z,74.67
2022-09-16T21:25:54.515Z,74.65
2022-09-16T21:28:21.635Z,74.81
2022-09-16T21:30:48.340Z,74.77
2022-09-16T21:33:14.821Z,74.95
2022-09-16T21:35:50.341Z,75.14
2022-09-16T21:38:17.250Z,75.14
2022-09-16T21:40:45.305Z,75.28
2022-09-16T21:43:11.772Z,74.77
2022-09-16T21:45:44.019Z,75.23
2022-09-16T21:48:10.487Z,75.65
2022-09-16T21:50:37.647Z,75.57
2022-09-16T21:53:04.068Z,75.33
2022-09-16T21:55:30.624Z,75.42
2022-09-16T21:57:57.137Z,75.72
2022-09-16T22:00:23.570Z,75.66
2022-09-16T22:02:50.070Z,75.66
2022-09-16T22:05:16.538Z,75.86
2022-09-16T22:07:42.999Z,75.53
2022-09-16T22:10:09.576Z,75.83
2022-09-16T22:12:36.161Z,75.69
2022-09-16T22:15:02.665Z,75.81
2022-09-16T22:17:29.203Z,75.75
2022-09-16T22:19:55.629Z,75.93
2022-09-16T22:22:22.068Z,75.75
2022-09-16T22:24:48.545Z,75.85
2022-09-16T22:27:15.036Z,75.70
2022-09-16T22:29:41.447Z,75.80
2022-09-16T22:32:07.857Z,75.97
2022-09-16T22:34:37.437Z,76.13
2022-09-16T22:37:03.850Z,76.25
2022-09-16T22:39:30.287Z,76.09
2022-09-16T22:41:56.870Z,76.19
2022-09-16T22:44:23.712Z,76.33
2022-09-16T22:46:50.227Z,76.29
2022-09-16T22:49:17.005Z,76.41
2022-09-16T22:51:43.890Z,76.44
2022-09-16T22:54:12.557Z,76.52
2022-09-16T22:56:38.961Z,76.65
2022-09-16T22:59:06.550Z,76.77
2022-09-16T23:01:39.135Z,76.92
2022-09-16T23:04:07.460Z,77.33
2022-09-16T23:06:34.788Z,77.21
2022-09-16T23:09:01.552Z,77.39
2022-09-16T23:11:30.667Z,77.42
2022-09-16T23:13:58.042Z,77.83
2022-09-16T23:16:33.407Z,77.71
2022-09-16T23:19:01.925Z,77.77
2022-09-16T23:21:31.323Z,77.76
2022-09-16T23:24:00.629Z,77.99
2022-09-16T23:26:29.995Z,78.34
2022-09-16T23:28:57.599Z,78.03
2022-09-16T23:31:27.137Z,77.81
2022-09-16T23:33:54.336Z,77.91
2022-09-16T23:36:20.915Z,78.18
2022-09-16T23:38:47.407Z,78.18
2022-09-16T23:41:16.773Z,78.33
2022-09-16T23:43:43.257Z,78.45
2022-09-16T23:46:11.336Z,78.32
2022-09-16T23:48:37.893Z,78.20
2022-09-16T23:51:07.320Z,77.98
2022-09-16T23:53:34.266Z,78.08
2022-09-16T23:56:05.701Z,78.04
2022-09-16T23:58:32.289Z,78.03
